createdAt,value
2023-05-07T00:00:50.356Z,170.99
2023-05-07T00:01:50.447Z,171.37
2023-05-07T00:02:50.599Z,172.07
2023-05-07T00:03:50.781Z,170.81
2023-05-07T00:04:50.653Z,172.48
2023-05-07T00:05:50.671Z,172.15
2023-05-07T00:06:50.727Z,171.43
2023-05-07T00:07:50.857Z,171.07
2023-05-07T00:08:50.875Z,171.77
2023-05-07T00:09:50.947Z,170.47
2023-05-07T00:10:50.973Z,171.74
2023-05-07T00:11:51.041Z,171.13
2023-05-07T00:12:51.173Z,171.94
2023-05-07T00:13:51.178Z,171.87
2023-05-07T00:14:51.262Z,170.68
2023-05-07T00:15:51.318Z,170.49
2023-05-07T00:16:51.407Z,171.18
2023-05-07T00:17:51.443Z,169.31
2023-05-07T00:18:51.450Z,170.35
2023-05-07T00:19:51.551Z,168.22
2023-05-07T00:20:51.588Z,169.97
2023-05-07T00:21:51.683Z,170.10
2023-05-07T00:22:51.726Z,168.41
2023-05-07T00:23:51.810Z,168.83
2023-05-07T00:24:51.836Z,168.78
2023-05-07T00:25:51.890Z,169.35
2023-05-07T00:26:51.981Z,169.70
2023-05-07T00:27:51.996Z,168.85
2023-05-07T00:28:52.106Z,168.07
2023-05-07T00:29:52.135Z,168.83
2023-05-07T00:30:52.202Z,168.15
2023-05-07T00:31:52.313Z,168.11
2023-05-07T00:32:52.365Z,167.74
2023-05-07T00:33:52.409Z,169.17
2023-05-07T00:34:52.505Z,168.87
2023-05-07T00:35:52.507Z,167.23
2023-05-07T00:36:52.556Z,166.93
2023-05-07T00:37:52.653Z,166.86
2023-05-07T00:38:52.680Z,167.34
2023-05-07T00:39:52.776Z,167.77
2023-05-07T00:40:52.777Z,168.16
2023-05-07T00:41:52.865Z,167.77
2023-05-07T00:42:53.346Z,166.92
2023-05-07T00:43:52.970Z,168.12
2023-05-07T00:44:53.036Z,168.33
2023-05-07T00:45:53.126Z,167.82
2023-05-07T00:46:53.221Z,167.88
2023-05-07T00:47:53.252Z,168.42
2023-05-07T00:48:53.321Z,167.53
2023-05-07T00:49:53.382Z,166.69
2023-05-07T00:50:53.406Z,167.99
2023-05-07T00:51:53.492Z,166.22
2023-05-07T00:52:53.535Z,166.73
2023-05-07T00:53:53.611Z,166.02
2023-05-07T00:54:53.644Z,166.48
2023-05-07T00:55:53.741Z,167.42
2023-05-07T00:56:53.757Z,166.67
2023-05-07T00:57:53.826Z,166.74
2023-05-07T00:58:53.900Z,165.63
2023-05-07T00:59:53.949Z,166.02
2023-05-07T01:00:54.069Z,166.45
2023-05-07T01:01:54.100Z,167.73
2023-05-07T01:02:54.225Z,166.06
2023-05-07T01:03:54.283Z,165.69
2023-05-07T01:04:54.267Z,166.98
2023-05-07T01:05:54.362Z,165.70
2023-05-07T01:06:54.406Z,166.76
2023-05-07T01:07:54.489Z,165.12
2023-05-07T01:08:54.549Z,166.63
2023-05-07T01:09:54.575Z,165.41
2023-05-07T01:10:54.663Z,166.44
2023-05-07T01:11:54.762Z,166.46
2023-05-07T01:12:54.858Z,164.57
2023-05-07T01:13:54.826Z,164.38
2023-05-07T01:14:54.873Z,164.72
2023-05-07T01:15:54.918Z,165.56
2023-05-07T01:16:55.023Z,166.01
2023-05-07T01:17:55.092Z,165.60
2023-05-07T01:18:55.113Z,164.02
2023-05-07T01:19:55.157Z,164.87
2023-05-07T01:20:55.295Z,165.73
2023-05-07T01:21:55.295Z,165.15
2023-05-07T01:22:55.400Z,167.44
2023-05-07T01:23:55.437Z,164.81
2023-05-07T01:24:55.484Z,164.21
2023-05-07T01:25:55.538Z,165.85
2023-05-07T01:26:55.626Z,166.37
2023-05-07T01:27:55.728Z,164.95
2023-05-07T01:28:55.722Z,163.69
2023-05-07T01:29:55.781Z,164.96
2023-05-07T01:30:55.856Z,165.04
2023-05-07T01:31:55.942Z,163.89
2023-05-07T01:32:56.098Z,164.85
2023-05-07T01:33:56.063Z,163.40
2023-05-07T01:34:56.131Z,165.08
2023-05-07T01:35:56.143Z,163.45
2023-05-07T01:36:56.291Z,165.23
2023-05-07T01:37:56.289Z,164.82
2023-05-07T01:38:56.356Z,165.11
2023-05-07T01:39:56.420Z,163.44
2023-05-07T01:40:56.512Z,164.37
2023-05-07T01:41:56.565Z,163.31
2023-05-07T01:42:56.628Z,163.30
2023-05-07T01:43:56.726Z,162.81
2023-05-07T01:44:56.772Z,164.89
2023-05-07T01:45:56.954Z,164.37
2023-05-07T01:46:56.829Z,163.55
2023-05-07T01:47:56.915Z,162.20
2023-05-07T01:48:56.947Z,164.82
2023-05-07T01:49:56.977Z,162.17
2023-05-07T01:50:57.042Z,163.17
2023-05-07T01:51:57.132Z,162.16
2023-05-07T01:52:57.151Z,162.89
2023-05-07T01:53:57.272Z,163.96
2023-05-07T01:54:57.286Z,162.59
2023-05-07T01:55:57.329Z,163.08
2023-05-07T01:56:57.428Z,161.78
2023-05-07T01:57:57.472Z,163.57
2023-05-07T01:58:57.509Z,162.93
2023-05-07T01:59:57.571Z,162.93
2023-05-07T02:00:57.640Z,161.87
2023-05-07T02:01:57.723Z,163.99
2023-05-07T02:02:57.956Z,162.84
2023-05-07T02:03:57.955Z,164.04
2023-05-07T02:04:57.911Z,162.79
2023-05-07T02:05:57.950Z,163.08
2023-05-07T02:06:58.021Z,162.84
2023-05-07T02:07:58.136Z,162.53
2023-05-07T02:08:58.200Z,161.51
2023-05-07T02:09:58.203Z,160.21
2023-05-07T02:10:58.301Z,159.56
2023-05-07T02:11:58.346Z,162.26
2023-05-07T02:12:58.440Z,161.19
2023-05-07T02:13:58.483Z,160.97
2023-05-07T02:14:58.556Z,160.83
2023-05-07T02:15:58.693Z,160.68
2023-05-07T02:16:58.695Z,159.55
2023-05-07T02:17:58.776Z,161.15
2023-05-07T02:18:58.812Z,160.66
2023-05-07T02:19:58.935Z,161.14
2023-05-07T02:20:58.917Z,161.07
2023-05-07T02:21:59.009Z,161.28
2023-05-07T02:22:59.090Z,159.23
2023-05-07T02:23:59.104Z,159.73
2023-05-07T02:24:59.179Z,162.22
2023-05-07T02:25:59.240Z,159.49
2023-05-07T02:26:59.320Z,160.10
2023-05-07T02:27:59.404Z,160.47
2023-05-07T02:28:59.420Z,160.14
2023-05-07T02:29:59.449Z,159.70
2023-05-07T02:30:59.531Z,159.20
2023-05-07T02:31:59.632Z,160.92
2023-05-07T02:32:59.604Z,158.52
2023-05-07T02:33:59.649Z,160.39
2023-05-07T02:34:59.744Z,160.16
2023-05-07T02:35:59.814Z,159.82
2023-05-07T02:36:59.870Z,159.06
2023-05-07T02:37:59.916Z,158.01
2023-05-07T02:38:59.956Z,159.05
2023-05-07T02:39:59.992Z,159.22
2023-05-07T02:41:00.054Z,159.09
2023-05-07T02:42:00.138Z,159.63
2023-05-07T02:43:00.200Z,158.61
2023-05-07T02:44:00.269Z,159.28
2023-05-07T02:45:00.312Z,159.72
2023-05-07T02:46:00.500Z,158.06
2023-05-07T02:47:00.470Z,156.85
2023-05-07T02:48:00.828Z,158.93
2023-05-07T02:49:00.628Z,158.07
2023-05-07T02:50:00.646Z,159.52
2023-05-07T02:51:00.753Z,158.36
2023-05-07T02:52:00.785Z,159.47
2023-05-07T02:53:00.905Z,158.05
2023-05-07T02:54:00.930Z,158.87
2023-05-07T02:55:00.932Z,157.21
2023-05-07T02:56:01.006Z,159.02
2023-05-07T02:57:01.081Z,159.48
2023-05-07T02:58:01.155Z,157.54
2023-05-07T02:59:01.193Z,157.44
2023-05-07T03:00:01.230Z,156.57
2023-05-07T03:01:01.337Z,158.14
2023-05-07T03:02:01.371Z,157.28
2023-05-07T03:03:01.489Z,157.32
2023-05-07T03:04:01.588Z,157.09
2023-05-07T03:05:01.566Z,157.51
2023-05-07T03:06:01.604Z,157.41
2023-05-07T03:07:01.636Z,156.31
2023-05-07T03:08:01.737Z,156.52
2023-05-07T03:09:01.759Z,156.54
2023-05-07T03:10:01.858Z,156.32
2023-05-07T03:11:01.893Z,156.21
2023-05-07T03:12:01.946Z,157.19
2023-05-07T03:13:02.129Z,156.53
2023-05-07T03:14:02.064Z,155.72
2023-05-07T03:15:02.187Z,156.28
2023-05-07T03:16:02.185Z,155.78
2023-05-07T03:17:02.220Z,156.63
2023-05-07T03:18:02.392Z,155.32
2023-05-07T03:19:02.404Z,156.27
2023-05-07T03:20:02.418Z,156.25
2023-05-07T03:21:02.505Z,156.33
2023-05-07T03:22:02.534Z,154.67
2023-05-07T03:23:02.605Z,154.85
2023-05-07T03:24:02.621Z,155.27
2023-05-07T03:25:02.690Z,154.01
2023-05-07T03:26:02.755Z,155.63
2023-05-07T03:27:02.861Z,155.07
2023-05-07T03:28:02.878Z,155.24
2023-05-07T03:29:02.963Z,154.54
2023-05-07T03:30:03.093Z,155.68
2023-05-07T03:31:03.177Z,154.70
2023-05-07T03:32:03.116Z,154.98
2023-05-07T03:33:03.315Z,154.53
2023-05-07T03:34:03.273Z,153.38
2023-05-07T03:35:03.307Z,153.79
2023-05-07T03:36:03.477Z,153.97
2023-05-07T03:37:03.427Z,153.99
2023-05-07T03:38:03.487Z,154.06
2023-05-07T03:39:03.548Z,153.32
2023-05-07T03:40:03.631Z,153.81
2023-05-07T03:41:03.702Z,153.94
2023-05-07T03:42:03.734Z,154.21
2023-05-07T03:43:04.501Z,154.89
2023-05-07T03:44:03.870Z,154.91
2023-05-07T03:45:03.936Z,153.82
2023-05-07T03:46:04.043Z,152.33
2023-05-07T03:47:04.140Z,153.34
2023-05-07T03:48:04.222Z,153.40
2023-05-07T03:49:05.956Z,152.23
2023-05-07T03:50:04.224Z,153.88
2023-05-07T03:51:04.295Z,153.73
2023-05-07T03:52:04.425Z,153.80
2023-05-07T03:53:04.450Z,152.87
2023-05-07T03:54:04.502Z,151.89
2023-05-07T03:55:04.622Z,153.49
2023-05-07T03:56:04.619Z,151.84
2023-05-07T03:57:04.773Z,152.22
2023-05-07T03:58:04.787Z,151.68
2023-05-07T03:59:04.807Z,151.67
2023-05-07T04:00:04.927Z,151.59
2023-05-07T04:01:04.947Z,152.16
2023-05-07T04:02:05.709Z,152.28
2023-05-07T04:03:05.215Z,151.05
2023-05-07T04:04:05.235Z,152.20
2023-05-07T04:05:05.186Z,152.60
2023-05-07T04:06:05.246Z,150.65
2023-05-07T04:07:05.351Z,150.61
2023-05-07T04:08:05.464Z,152.11
2023-05-07T04:09:05.462Z,152.05
2023-05-07T04:10:05.541Z,150.88
2023-05-07T04:11:05.552Z,151.60
2023-05-07T04:12:05.647Z,149.86
2023-05-07T04:13:05.780Z,149.68
2023-05-07T04:14:05.754Z,150.82
2023-05-07T04:15:05.816Z,150.25
2023-05-07T04:16:05.939Z,151.26
2023-05-07T04:17:05.970Z,149.53
2023-05-07T04:18:06.115Z,151.35
2023-05-07T04:19:06.112Z,149.33
2023-05-07T04:20:06.181Z,149.83
2023-05-07T04:21:06.214Z,149.35
2023-05-07T04:22:06.285Z,149.77
2023-05-07T04:23:06.325Z,148.80
2023-05-07T04:24:06.389Z,149.70
2023-05-07T04:25:06.456Z,148.81
2023-05-07T04:26:06.495Z,149.77
2023-05-07T04:27:06.602Z,148.89
2023-05-07T04:28:06.664Z,148.07
2023-05-07T04:29:06.676Z,149.83
2023-05-07T04:30:06.738Z,149.49
2023-05-07T04:31:06.800Z,149.09
2023-05-07T04:32:06.877Z,149.09
2023-05-07T04:33:07.004Z,147.61
2023-05-07T04:34:06.956Z,150.83
2023-05-07T04:35:07.066Z,149.90
2023-05-07T04:36:07.072Z,146.92
2023-05-07T04:37:07.165Z,147.54
2023-05-07T04:38:07.237Z,149.69
2023-05-07T04:39:07.260Z,147.16
2023-05-07T04:40:07.322Z,148.33
2023-05-07T04:41:07.374Z,148.14
2023-05-07T04:42:07.447Z,148.94
2023-05-07T04:43:07.512Z,147.38
2023-05-07T04:44:07.587Z,147.39
2023-05-07T04:45:07.658Z,148.50
2023-05-07T04:46:07.739Z,148.66
2023-05-07T04:47:07.761Z,148.19
2023-05-07T04:48:07.960Z,148.05
2023-05-07T04:49:07.953Z,148.12
2023-05-07T04:50:08.001Z,148.28
2023-05-07T04:51:08.000Z,147.34
2023-05-07T04:52:08.063Z,148.43
2023-05-07T04:53:08.113Z,146.03
2023-05-07T04:54:08.177Z,147.66
2023-05-07T04:55:08.259Z,147.28
2023-05-07T04:56:08.472Z,146.40
2023-05-07T04:57:08.454Z,147.29
2023-05-07T04:58:08.455Z,147.33
2023-05-07T04:59:08.495Z,146.50
2023-05-07T05:00:08.885Z,146.46
2023-05-07T05:01:08.666Z,146.71
2023-05-07T05:02:08.741Z,146.09
2023-05-07T05:03:08.873Z,146.87
2023-05-07T05:04:08.941Z,147.88
2023-05-07T05:05:08.924Z,145.87
2023-05-07T05:06:08.921Z,146.81
2023-05-07T05:07:09.009Z,146.20
2023-05-07T05:08:09.065Z,145.42
2023-05-07T05:09:09.171Z,147.75
2023-05-07T05:10:09.395Z,144.24
2023-05-07T05:11:09.222Z,147.08
2023-05-07T05:13:09.399Z,145.47
2023-05-07T05:14:09.400Z,145.46
2023-05-07T05:15:09.452Z,146.72
2023-05-07T05:16:09.537Z,145.20
2023-05-07T05:17:09.591Z,146.51
2023-05-07T05:18:09.615Z,145.08
2023-05-07T05:19:09.658Z,145.97
2023-05-07T05:20:10.053Z,146.70
2023-05-07T05:21:09.770Z,144.32
2023-05-07T05:22:09.858Z,145.70
2023-05-07T05:23:09.925Z,144.95
2023-05-07T05:24:10.009Z,145.41
2023-05-07T05:25:09.960Z,144.00
2023-05-07T05:26:10.043Z,145.60
2023-05-07T05:27:10.036Z,142.73
2023-05-07T05:28:10.238Z,143.63
2023-05-07T05:29:10.179Z,144.80
2023-05-07T05:30:10.436Z,143.37
2023-05-07T05:31:10.350Z,145.08
2023-05-07T05:32:10.348Z,143.19
2023-05-07T05:33:10.471Z,143.21
2023-05-07T05:34:10.440Z,145.74
2023-05-07T05:35:10.507Z,143.31
2023-05-07T05:36:10.613Z,144.07
2023-05-07T05:37:10.674Z,143.73
2023-05-07T05:38:10.718Z,143.10
2023-05-07T05:39:10.790Z,144.52
2023-05-07T05:40:10.962Z,143.27
2023-05-07T05:41:10.891Z,143.30
2023-05-07T05:42:10.964Z,144.35
2023-05-07T05:43:11.045Z,142.77
2023-05-07T05:44:11.141Z,143.65
2023-05-07T05:45:11.110Z,143.26
2023-05-07T05:46:11.234Z,142.84
2023-05-07T05:47:11.221Z,142.56
2023-05-07T05:48:11.317Z,143.29
2023-05-07T05:49:11.340Z,142.72
2023-05-07T05:50:11.597Z,143.38
2023-05-07T05:51:11.457Z,143.56
2023-05-07T05:52:11.728Z,143.41
2023-05-07T05:53:11.571Z,142.88
2023-05-07T05:54:11.597Z,142.47
2023-05-07T05:55:11.662Z,142.67
2023-05-07T05:56:11.730Z,143.84
2023-05-07T05:57:11.812Z,143.13
2023-05-07T05:58:11.924Z,142.66
2023-05-07T05:59:11.951Z,141.49
2023-05-07T06:00:12.315Z,142.21
2023-05-07T06:01:12.159Z,142.58
2023-05-07T06:02:12.197Z,143.47
2023-05-07T06:03:14.269Z,143.06
2023-05-07T06:04:12.281Z,143.06
2023-05-07T06:05:12.399Z,141.34
2023-05-07T06:06:12.367Z,141.31
2023-05-07T06:07:12.434Z,141.13
2023-05-07T06:08:12.494Z,141.33
2023-05-07T06:09:12.562Z,141.66
2023-05-07T06:10:12.937Z,141.90
2023-05-07T06:11:12.668Z,141.05
2023-05-07T06:12:12.734Z,141.77
2023-05-07T06:13:12.831Z,141.54
2023-05-07T06:14:12.978Z,141.27
2023-05-07T06:15:12.897Z,141.88
2023-05-07T06:16:12.998Z,141.68
2023-05-07T06:17:13.033Z,141.46
2023-05-07T06:18:13.119Z,141.23
2023-05-07T06:19:13.201Z,142.07
2023-05-07T06:20:13.502Z,141.21
2023-05-07T06:21:13.266Z,139.85
2023-05-07T06:22:13.327Z,140.15
2023-05-07T06:23:14.473Z,141.19
2023-05-07T06:24:13.449Z,139.95
2023-05-07T06:25:13.481Z,141.15
2023-05-07T06:26:13.570Z,140.15
2023-05-07T06:27:13.680Z,141.32
2023-05-07T06:28:13.685Z,139.01
2023-05-07T06:29:13.753Z,140.53
2023-05-07T06:30:13.838Z,140.36
2023-05-07T06:31:13.908Z,141.24
2023-05-07T06:32:14.230Z,141.22
2023-05-07T06:33:13.998Z,141.59
2023-05-07T06:34:14.083Z,141.16
2023-05-07T06:35:14.138Z,140.75
2023-05-07T06:36:14.186Z,140.77
2023-05-07T06:37:14.237Z,140.53
2023-05-07T06:38:14.353Z,140.74
2023-05-07T06:39:14.362Z,139.82
2023-05-07T06:40:14.400Z,139.11
2023-05-07T06:41:14.457Z,141.11
2023-05-07T06:42:14.525Z,139.55
2023-05-07T06:43:14.555Z,140.69
2023-05-07T06:44:14.623Z,140.43
2023-05-07T06:45:14.713Z,140.16
2023-05-07T06:46:14.815Z,140.22
2023-05-07T06:47:16.369Z,139.54
2023-05-07T06:48:15.542Z,140.25
2023-05-07T06:49:15.480Z,140.14
2023-05-07T06:50:15.005Z,139.17
2023-05-07T06:51:15.051Z,138.99
2023-05-07T06:52:15.106Z,139.36
2023-05-07T06:53:15.190Z,140.96
2023-05-07T06:54:15.218Z,141.27
2023-05-07T06:55:15.264Z,139.83
2023-05-07T06:56:15.345Z,139.83
2023-05-07T06:57:15.385Z,139.78
2023-05-07T06:58:15.477Z,139.98
2023-05-07T06:59:15.486Z,140.75
2023-05-07T07:00:15.579Z,140.45
2023-05-07T07:01:15.636Z,141.35
2023-05-07T07:02:18.102Z,141.39
2023-05-07T07:03:15.683Z,140.28
2023-05-07T07:04:15.706Z,141.00
2023-05-07T07:05:15.655Z,140.49
2023-05-07T07:06:15.662Z,140.06
2023-05-07T07:07:15.625Z,140.96
2023-05-07T07:08:15.683Z,140.01
2023-05-07T07:09:15.622Z,139.80
2023-05-07T07:10:15.633Z,139.55
2023-05-07T07:11:15.605Z,139.77
2023-05-07T07:12:15.630Z,137.36
2023-05-07T07:13:15.646Z,137.33
2023-05-07T07:14:15.623Z,137.07
2023-05-07T07:15:15.597Z,137.24
2023-05-07T07:16:15.615Z,137.19
2023-05-07T07:17:15.570Z,135.84
2023-05-07T07:18:15.593Z,135.81
2023-05-07T07:19:15.554Z,134.84
2023-05-07T07:20:15.828Z,137.61
2023-05-07T07:21:15.551Z,136.37
2023-05-07T07:22:15.619Z,135.54
2023-05-07T07:23:15.619Z,136.28
2023-05-07T07:24:15.534Z,136.62
2023-05-07T07:25:15.544Z,135.82
2023-05-07T07:26:15.578Z,135.01
2023-05-07T07:27:15.514Z,136.10
2023-05-07T07:28:15.564Z,137.49
2023-05-07T07:29:15.504Z,135.61
2023-05-07T07:30:15.486Z,137.09
2023-05-07T07:31:15.517Z,134.66
2023-05-07T07:32:15.504Z,136.59
2023-05-07T07:33:15.489Z,134.44
2023-05-07T07:34:15.484Z,133.96
2023-05-07T07:35:15.496Z,133.64
2023-05-07T07:36:15.564Z,134.50
2023-05-07T07:37:15.444Z,132.63
2023-05-07T07:38:15.441Z,132.45
2023-05-07T07:39:15.564Z,132.14
2023-05-07T07:40:15.568Z,133.87
2023-05-07T07:41:15.611Z,130.79
2023-05-07T07:42:15.669Z,129.98
2023-05-07T07:43:15.734Z,129.10
2023-05-07T07:44:16.555Z,129.15
2023-05-07T07:45:15.803Z,129.35
2023-05-07T07:46:16.127Z,128.54
2023-05-07T07:47:16.011Z,128.56
2023-05-07T07:48:16.016Z,126.95
2023-05-07T07:49:16.060Z,126.46
2023-05-07T07:50:25.301Z,126.60
2023-05-07T07:51:17.151Z,126.74
2023-05-07T07:52:16.187Z,125.88
2023-05-07T07:53:16.163Z,124.78
2023-05-07T07:54:16.141Z,123.71
2023-05-07T07:55:16.144Z,123.70
2023-05-07T07:56:16.103Z,124.73
2023-05-07T07:57:16.071Z,124.56
2023-05-07T07:58:16.112Z,122.71
2023-05-07T07:59:16.110Z,122.42
2023-05-07T08:00:16.182Z,123.01
2023-05-07T08:01:16.244Z,124.09
2023-05-07T08:02:16.307Z,122.53
2023-05-07T08:03:16.589Z,123.60
2023-05-07T08:04:16.592Z,124.03
2023-05-07T08:05:16.489Z,122.97
2023-05-07T08:06:16.567Z,121.93
2023-05-07T08:07:16.631Z,119.71
2023-05-07T08:08:16.749Z,122.21
2023-05-07T08:09:16.768Z,123.16
2023-05-07T08:10:16.800Z,122.61
2023-05-07T08:11:16.845Z,122.69
2023-05-07T08:12:16.922Z,123.06
2023-05-07T08:13:17.011Z,122.60
2023-05-07T08:14:17.055Z,120.99
2023-05-07T08:15:17.110Z,121.21
2023-05-07T08:16:17.188Z,121.45
2023-05-07T08:17:17.301Z,119.92
2023-05-07T08:18:17.295Z,121.16
2023-05-07T08:19:17.372Z,122.45
2023-05-07T08:20:17.441Z,120.67
2023-05-07T08:21:17.513Z,121.07
2023-05-07T08:22:17.525Z,120.06
2023-05-07T08:23:17.605Z,118.77
2023-05-07T08:24:17.722Z,117.55
2023-05-07T08:25:17.749Z,118.39
2023-05-07T08:26:17.756Z,116.64
2023-05-07T08:27:17.831Z,119.17
2023-05-07T08:28:17.902Z,117.10
2023-05-07T08:29:17.967Z,116.19
2023-05-07T08:30:18.038Z,116.36
2023-05-07T08:31:18.152Z,115.08
2023-05-07T08:32:18.112Z,113.13
2023-05-07T08:33:18.183Z,112.78
2023-05-07T08:34:18.249Z,111.95
2023-05-07T08:35:18.292Z,109.68
2023-05-07T08:36:18.360Z,108.72
2023-05-07T08:37:18.425Z,107.79
2023-05-07T08:38:18.502Z,105.89
2023-05-07T08:39:18.569Z,105.47
2023-05-07T08:40:18.976Z,102.30
2023-05-07T08:41:18.713Z,101.58
2023-05-07T08:42:18.774Z,100.78
2023-05-07T08:43:18.844Z,99.21
2023-05-07T08:44:18.878Z,99.63
2023-05-07T08:45:18.921Z,99.17
2023-05-07T08:46:19.100Z,99.27
2023-05-07T08:47:19.064Z,101.76
2023-05-07T08:48:19.126Z,99.82
2023-05-07T08:49:19.203Z,101.17
2023-05-07T08:50:19.294Z,99.98
2023-05-07T08:51:19.336Z,99.80
2023-05-07T08:52:19.406Z,103.44
2023-05-07T08:53:19.436Z,101.87
2023-05-07T08:54:19.499Z,100.31
2023-05-07T08:55:19.570Z,100.66
2023-05-07T08:56:22.027Z,100.79
2023-05-07T08:57:19.618Z,102.24
2023-05-07T08:58:19.626Z,101.62
2023-05-07T08:59:19.647Z,101.49
2023-05-07T09:00:19.733Z,102.00
2023-05-07T09:01:19.662Z,102.36
2023-05-07T09:02:19.637Z,101.73
2023-05-07T09:03:20.126Z,104.17
2023-05-07T09:04:19.631Z,103.97
2023-05-07T09:05:19.606Z,102.97
2023-05-07T09:06:19.580Z,105.64
2023-05-07T09:07:19.582Z,104.99
2023-05-07T09:08:19.566Z,104.67
2023-05-07T09:09:19.606Z,103.99
2023-05-07T09:10:19.645Z,104.06
2023-05-07T09:11:19.558Z,102.44
2023-05-07T09:12:19.593Z,104.27
2023-05-07T09:13:19.627Z,105.04
2023-05-07T09:14:19.510Z,105.76
2023-05-07T09:15:19.544Z,106.16
2023-05-07T09:16:19.538Z,104.81
2023-05-07T09:17:19.527Z,105.69
2023-05-07T09:18:19.537Z,107.22
2023-05-07T09:19:19.505Z,106.74
2023-05-07T09:20:19.476Z,105.99
2023-05-07T09:21:19.498Z,104.73
2023-05-07T09:22:19.469Z,102.22
2023-05-07T09:23:19.489Z,103.81
2023-05-07T09:24:19.441Z,103.05
2023-05-07T09:25:19.469Z,104.67
2023-05-07T09:26:19.442Z,104.89
2023-05-07T09:27:19.471Z,105.65
2023-05-07T09:28:19.428Z,106.60
2023-05-07T09:29:19.434Z,106.50
2023-05-07T09:30:19.451Z,107.04
2023-05-07T09:31:21.315Z,104.61
2023-05-07T09:32:19.598Z,105.95
2023-05-07T09:33:19.613Z,108.14
2023-05-07T09:34:19.697Z,109.18
2023-05-07T09:35:19.764Z,105.33
2023-05-07T09:36:19.811Z,104.70
2023-05-07T09:37:19.850Z,104.57
2023-05-07T09:38:20.061Z,107.49
2023-05-07T09:39:19.982Z,106.05
2023-05-07T09:40:20.006Z,106.94
2023-05-07T09:41:20.067Z,107.94
2023-05-07T09:42:20.140Z,106.81
2023-05-07T09:43:20.197Z,105.47
2023-05-07T09:44:20.341Z,104.18
2023-05-07T09:45:20.305Z,104.79
2023-05-07T09:46:20.445Z,103.96
2023-05-07T09:47:20.471Z,105.68
2023-05-07T09:48:20.517Z,103.82
2023-05-07T09:49:21.033Z,102.90
2023-05-07T09:50:20.597Z,104.62
2023-05-07T09:51:20.661Z,103.24
2023-05-07T09:52:20.739Z,100.73
2023-05-07T09:53:21.073Z,100.84
2023-05-07T09:54:20.852Z,101.17
2023-05-07T09:55:20.905Z,98.86
2023-05-07T09:56:20.963Z,96.77
2023-05-07T09:57:20.995Z,98.59
2023-05-07T09:58:21.068Z,98.15
2023-05-07T09:59:21.116Z,98.13
2023-05-07T10:00:22.029Z,98.53
2023-05-07T10:01:21.248Z,100.19
2023-05-07T10:02:21.383Z,99.07
2023-05-07T10:03:21.459Z,100.01
2023-05-07T10:04:21.424Z,100.32
2023-05-07T10:05:21.527Z,100.16
2023-05-07T10:06:21.510Z,100.36
2023-05-07T10:07:21.580Z,100.47
2023-05-07T10:08:21.649Z,101.25
2023-05-07T10:09:21.712Z,102.11
2023-05-07T10:10:21.792Z,101.48
2023-05-07T10:11:21.812Z,102.31
2023-05-07T10:12:21.872Z,104.03
2023-05-07T10:13:21.986Z,102.89
2023-05-07T10:14:22.610Z,103.27
2023-05-07T10:15:22.084Z,104.43
2023-05-07T10:16:22.255Z,104.60
2023-05-07T10:17:22.237Z,104.57
2023-05-07T10:18:22.319Z,102.53
2023-05-07T10:19:22.288Z,103.68
2023-05-07T10:20:22.339Z,105.05
2023-05-07T10:21:22.423Z,105.21
2023-05-07T10:22:22.426Z,104.26
2023-05-07T10:23:22.485Z,102.98
2023-05-07T10:24:22.585Z,103.22
2023-05-07T10:25:22.656Z,101.94
2023-05-07T10:26:22.655Z,102.38
2023-05-07T10:27:22.715Z,107.23
2023-05-07T10:28:23.094Z,109.78
2023-05-07T10:29:22.850Z,110.40
2023-05-07T10:30:22.888Z,112.03
2023-05-07T10:31:22.984Z,111.26
2023-05-07T10:32:23.055Z,112.99
2023-05-07T10:33:23.039Z,111.65
2023-05-07T10:34:23.100Z,109.39
2023-05-07T10:35:23.178Z,108.34
2023-05-07T10:36:23.204Z,111.53
2023-05-07T10:37:23.278Z,109.33
2023-05-07T10:38:23.307Z,110.46
2023-05-07T10:39:23.360Z,108.90
2023-05-07T10:40:23.429Z,100.78
2023-05-07T10:41:23.454Z,113.50
2023-05-07T10:42:23.519Z,119.06
2023-05-07T10:43:23.567Z,116.70
2023-05-07T10:44:23.606Z,121.50
2023-05-07T10:45:23.634Z,119.40
2023-05-07T10:46:23.751Z,116.18
2023-05-07T10:47:23.780Z,114.73
2023-05-07T10:48:30.102Z,114.43
2023-05-07T10:49:24.818Z,114.60
2023-05-07T10:50:23.852Z,115.56
2023-05-07T10:51:23.788Z,116.84
2023-05-07T10:52:23.774Z,119.21
2023-05-07T10:53:23.774Z,126.09
2023-05-07T10:54:23.755Z,130.19
2023-05-07T10:55:23.775Z,136.93
2023-05-07T10:56:23.768Z,138.42
2023-05-07T10:57:24.575Z,140.86
2023-05-07T10:59:23.733Z,147.79
2023-05-07T11:00:38.098Z,143.83
2023-05-07T11:01:27.545Z,144.59
2023-05-07T11:02:23.714Z,145.05
2023-05-07T11:03:23.705Z,149.21
2023-05-07T11:04:23.740Z,154.87
2023-05-07T11:05:23.800Z,164.79
2023-05-07T11:06:23.662Z,177.40
2023-05-07T11:07:23.655Z,180.02
2023-05-07T11:08:23.686Z,184.94
2023-05-07T11:09:23.659Z,186.24
2023-05-07T11:10:23.683Z,187.18
2023-05-07T11:11:23.631Z,186.32
2023-05-07T11:12:23.648Z,180.60
2023-05-07T11:13:23.677Z,171.43
2023-05-07T11:14:23.677Z,166.30
2023-05-07T11:15:23.601Z,161.67
2023-05-07T11:16:23.702Z,165.68
2023-05-07T11:17:23.610Z,164.94
2023-05-07T11:18:23.626Z,170.69
2023-05-07T11:19:23.610Z,169.04
2023-05-07T11:20:23.733Z,171.84
2023-05-07T11:21:23.583Z,172.28
2023-05-07T11:22:23.548Z,171.48
2023-05-07T11:23:23.543Z,172.61
2023-05-07T11:24:23.591Z,178.04
2023-05-07T11:25:23.535Z,186.62
2023-05-07T11:26:23.511Z,192.37
2023-05-07T11:27:23.532Z,191.66
2023-05-07T11:28:23.539Z,188.48
2023-05-07T11:29:23.774Z,182.89
2023-05-07T11:30:23.641Z,179.04
2023-05-07T11:31:23.660Z,174.06
2023-05-07T11:32:23.718Z,168.98
2023-05-07T11:33:23.724Z,167.43
2023-05-07T11:34:23.812Z,165.71
2023-05-07T11:35:23.815Z,162.80
2023-05-07T11:36:24.003Z,161.24
2023-05-07T11:37:23.912Z,161.56
2023-05-07T11:38:23.972Z,161.01
2023-05-07T11:39:24.050Z,161.05
2023-05-07T11:40:24.062Z,161.75
2023-05-07T11:41:24.132Z,162.94
2023-05-07T11:42:24.221Z,163.67
2023-05-07T11:43:24.287Z,163.12
2023-05-07T11:44:24.304Z,164.37
2023-05-07T11:45:24.309Z,162.75
2023-05-07T11:46:24.494Z,164.38
2023-05-07T11:47:24.425Z,165.10
2023-05-07T11:48:24.441Z,163.07
2023-05-07T11:49:26.121Z,165.22
2023-05-07T11:50:24.562Z,161.67
2023-05-07T11:51:24.601Z,163.44
2023-05-07T11:52:24.670Z,163.83
2023-05-07T11:53:24.730Z,166.45
2023-05-07T11:54:24.766Z,167.86
2023-05-07T11:55:24.831Z,169.83
2023-05-07T11:56:24.860Z,171.39
2023-05-07T11:57:24.927Z,171.55
2023-05-07T11:58:25.012Z,172.17
2023-05-07T11:59:25.008Z,171.25
2023-05-07T12:00:25.114Z,170.28
2023-05-07T12:01:25.127Z,170.52
2023-05-07T12:02:25.274Z,171.14
2023-05-07T12:03:25.747Z,170.92
2023-05-07T12:04:25.402Z,171.45
2023-05-07T12:05:25.327Z,169.77
2023-05-07T12:06:25.391Z,168.43
2023-05-07T12:07:25.429Z,163.87
2023-05-07T12:08:25.495Z,161.69
2023-05-07T12:09:25.583Z,156.39
2023-05-07T12:10:25.600Z,150.37
2023-05-07T12:11:25.686Z,147.05
2023-05-07T12:12:25.775Z,142.37
2023-05-07T12:13:25.815Z,138.74
2023-05-07T12:14:25.821Z,135.31
2023-05-07T12:15:25.879Z,132.40
2023-05-07T12:16:26.022Z,129.12
2023-05-07T12:17:26.008Z,122.74
2023-05-07T12:18:26.063Z,119.44
2023-05-07T12:19:26.124Z,115.97
2023-05-07T12:20:26.143Z,112.44
2023-05-07T12:21:26.235Z,104.25
2023-05-07T12:22:26.293Z,102.36
2023-05-07T12:23:26.298Z,102.37
2023-05-07T12:24:26.440Z,99.47
2023-05-07T12:25:26.436Z,106.39
2023-05-07T12:26:26.464Z,104.58
2023-05-07T12:27:26.534Z,105.18
2023-05-07T12:28:26.582Z,103.24
2023-05-07T12:29:26.639Z,104.82
2023-05-07T12:30:26.638Z,102.15
2023-05-07T12:31:26.737Z,104.01